Graysville, Indiana
Current Conditions -  °F | °C
As of 11:35 AM on Saturday 20 Dec 2014 (Local Time) from KRSV Reporting Station
Overcast Overcast  
Wind Chill: 33°   Ceiling: 6500
Heat Index: 33°   Visibility: 10mi
Dew Point: 28°   Wind: 0mph
Humidity: 81%   Direction: NA
Pressure: 30.34"   Gusts: NA
Location:  39.12°N, 87.56°W
Report Text: KRSV 201635Z AUTO 00000KT 10SM SCT015 OVC065 01/M02 A3034 RMK AO2 T00051025
Loading
Personal Weather Stations






























Interactive Weather Map New forecast layout! Learn more

10-Day Weather Forecast

Advertisements
Track Severe Weather on mobile